Disclaimer

Please do not use the information listed here in-flight or in-navigation, as they are not provided to us by the airports but are provided by volunteers, so they might be outdated.

Search


Regions


Airport information page

No radio frequency information is available.

Airport informations:
Latitude: 12° 41' 39.75" S
Longitude: 060° 05' 53.77" W
Elevation: 2018 feet - 615 meters
Operating hours: From sunrise to sunset (SR-SS)
Operating agency: Civil government, landing fees and diplomatic clearance may be required
Timezone: UTC-4(-3DT)
Fuel: Jet A1, without icing nhibitor.

100/130 octane gasoline, leaded, MIL-L-5572F (GREEN)

Runway information:
03/21 - 8530 x 98 feet< - >2600 x 30 meters

Recent METARs:
SBVH 181700Z 01008KT 9999 TS VCSH BKN030 FEW035CB BKN100 30/23 Q1012
SBVH 181800Z VRB04KT 9999 TS VCSH SCT025 FEW030CB BKN100 25/22 Q1012
SBVH 181800Z VRB04KT 9999 TS VCSH SCT025 FEW030CB BKN100 25/22 Q1012

Airport on the map: